»·PEaware :: N494SP KSBD-KEMT

N494SP :: KSBD-KEMT

FLIGHT INFORMATION

Flight Status: Arrived
Operator: Privately registered:
United States
More flights under this callsign
Pilot: Arik L. (33213)
Aircraft: CESSNA 172 SKYHAWK
(C172)
More flights by this aircraft type
Origin: KSBD San Bernardino Intl
United States
Destination: KEMT El Monte
United States
More flights between these airports :: More routes between these airports
Route:
File this flight plan on PilotEdge
Remarks:
Altitude:
(Current/Filed)
4,500ft
Speed:
(Current/Filed)
120kts
Departed: 18-Jan-21 05:15 PM
Arrived: 18-Jan-21 05:44 PM
Distance/Time
Traveled:
6737nm/0:29
Distance/Time
To Go:
Arrived

Flight Plot

Page will automatically refresh every two minutes.


Map Options




Map Legend


Flown Route
Filed Route
Departure Airport
Arrival Airport
Navaid (VOR, NDB)
Fix

Horizontal Profiles

Position Reports

Time Latitude Longitude Heading Altitude Ground
Speed
18-Jan-21 17:04 34.101142 -117.227733 15 1147ft 0kts
18-Jan-21 17:05 34.101142 -117.227733 15 1147ft 0kts
18-Jan-21 17:06 34.101142 -117.227733 15 1147ft 0kts
18-Jan-21 17:07 34.101336 -117.227940 165 1146ft 7kts
18-Jan-21 17:09 34.100105 -117.227287 178 1145ft 12kts
18-Jan-21 17:10 34.098886 -117.229307 251 1140ft 20kts
18-Jan-21 17:11 34.096658 -117.236858 253 1123ft 34kts
18-Jan-21 17:12 34.093530 -117.247390 252 1098ft 22kts
18-Jan-21 17:13 34.091876 -117.250950 161 1086ft 0kts
18-Jan-21 17:14 34.090980 -117.249668 77 1088ft 14kts
18-Jan-21 17:15 34.097498 -117.227373 72 1470ft 88kts
18-Jan-21 17:16 34.089538 -117.211870 235 2143ft 85kts
18-Jan-21 17:17 34.080186 -117.242044 247 2542ft 118kts
18-Jan-21 17:18 34.068356 -117.276896 247 2712ft 109kts
18-Jan-21 17:19 34.054130 -117.309454 230 2759ft 117kts
18-Jan-21 17:20 34.043938 -117.340160 265 3334ft 92kts
18-Jan-21 17:21 34.041649 -117.368094 262 4111ft 83kts
18-Jan-21 17:22 34.042168 -117.398230 278 4357ft 118kts
18-Jan-21 17:23 34.044620 -117.432693 272 4576ft 91kts
18-Jan-21 17:23 34.045128 -117.457328 270 4781ft 92kts
18-Jan-21 17:25 34.044753 -117.498857 269 4403ft 127kts
18-Jan-21 17:25 34.044819 -117.531227 273 4257ft 100kts
18-Jan-21 17:27 34.046651 -117.565138 272 4456ft 86kts
18-Jan-21 17:27 34.047449 -117.592417 273 4503ft 107kts
18-Jan-21 17:28 34.052836 -117.629296 281 4497ft 113kts
18-Jan-21 17:29 34.059265 -117.666230 281 4498ft 113kts
18-Jan-21 17:30 34.065770 -117.703362 281 4500ft 113kts
18-Jan-21 17:31 34.072430 -117.740650 283 4500ft 113kts
18-Jan-21 17:32 34.080798 -117.777178 285 4498ft 113kts
18-Jan-21 17:33 34.089684 -117.815150 283 4236ft 123kts
18-Jan-21 17:34 34.093550 -117.855361 274 3732ft 121kts
18-Jan-21 17:35 34.095569 -117.894921 271 3231ft 117kts
18-Jan-21 17:36 34.097441 -117.930134 311 2761ft 111kts
18-Jan-21 17:37 34.126776 -117.940204 346 2268ft 109kts
18-Jan-21 17:38 34.134912 -117.920795 146 1767ft 110kts
18-Jan-21 17:39 34.121649 -117.940860 253 1291ft 106kts
18-Jan-21 17:40 34.109823 -117.970482 241 1203ft 91kts
18-Jan-21 17:41 34.096556 -117.999119 253 1200ft 103kts
18-Jan-21 17:42 34.096760 -118.025258 254 875ft 71kts
18-Jan-21 17:43 34.085460 -118.034833 173 293ft 11kts
18-Jan-21 17:44 34.085494 -118.034518 22 292ft 0kts
18-Jan-21 17:45 34.086782 -118.033074 87 295ft 12kts
18-Jan-21 17:46 34.087389 -118.032861 292 295ft 0kts
18-Jan-21 17:47 0.000408 0.013975 359 3ft 0kts
18-Jan-21 17:48 0.000408 0.013975 359 3ft 0kts
18-Jan-21 17:49 0.000408 0.013975 359 3ft 0kts
18-Jan-21 17:50 0.000408 0.013975 359 3ft 0kts
18-Jan-21 17:51 0.000408 0.013975 359 3ft 0kts
18-Jan-21 17:52 0.000408 0.013975 359 3ft 0kts
18-Jan-21 17:53 0.000408 0.013975 359 3ft 0kts
18-Jan-21 17:54 0.000408 0.013975 359 3ft 0kts
18-Jan-21 17:55 0.000408 0.013975 359 3ft 0kts
18-Jan-21 17:56 0.000408 0.013975 359 3ft 0kts
18-Jan-21 17:57 0.000408 0.013975 359 3ft 0kts

Navigation Log

Ident Type
Flight plan parsing failed, navigation log unavailable